createdAt,value
2022-11-10T00:02:17.985Z,76247.53
2022-11-10T00:04:45.859Z,76241.28
2022-11-10T00:07:13.701Z,76260.00
2022-11-10T00:09:41.654Z,76253.75
2022-11-10T00:12:11.075Z,76264.16
2022-11-10T00:14:56.238Z,76266.22
2022-11-10T00:17:23.997Z,76264.16
2022-11-10T00:19:51.949Z,76268.31
2022-11-10T00:22:19.761Z,76274.53
2022-11-10T00:24:47.808Z,76287.03
2022-11-10T00:27:16.938Z,76291.19
2022-11-10T00:29:45.123Z,76303.66
2022-11-10T00:32:13.173Z,76303.66
2022-11-10T00:34:40.859Z,76303.66
2022-11-10T00:37:08.654Z,76311.97
2022-11-10T00:39:36.890Z,76320.28
2022-11-10T00:42:05.240Z,76330.69
2022-11-10T00:44:34.500Z,76330.69
2022-11-10T00:47:02.646Z,76343.16
2022-11-10T00:49:30.546Z,76336.91
2022-11-10T00:51:58.408Z,76336.91
2022-11-10T00:54:26.528Z,76345.22
2022-11-10T00:56:54.184Z,76345.22
2022-11-10T00:59:22.233Z,76341.06
2022-11-10T01:01:51.342Z,76336.91
2022-11-10T01:04:19.113Z,76320.28
2022-11-10T01:06:48.326Z,76326.53
2022-11-10T01:09:16.425Z,76324.44
2022-11-10T01:11:44.080Z,76341.06
2022-11-10T01:14:12.303Z,76343.16
2022-11-10T01:16:40.394Z,76343.16
2022-11-10T01:19:09.428Z,76332.75
2022-11-10T01:21:37.385Z,76349.41
2022-11-10T01:24:05.568Z,76351.47
2022-11-10T01:26:33.829Z,76345.22
2022-11-10T01:29:01.780Z,76353.56
2022-11-10T01:31:29.594Z,76361.88
2022-11-10T01:33:59.907Z,76341.06
2022-11-10T01:36:29.269Z,76324.44
2022-11-10T01:38:57.243Z,76311.97
2022-11-10T01:41:25.311Z,76309.88
2022-11-10T01:43:53.493Z,76307.81
2022-11-10T01:46:21.877Z,76311.97
2022-11-10T01:48:53.216Z,76311.97
2022-11-10T01:51:25.786Z,76316.13
2022-11-10T01:53:59.271Z,76318.22
2022-11-10T01:56:30.956Z,76328.59
2022-11-10T01:59:02.217Z,76349.41
2022-11-10T02:01:30.218Z,76361.88
2022-11-10T02:04:01.103Z,76370.19
2022-11-10T02:06:32.391Z,76372.25
2022-11-10T02:09:02.105Z,76368.09
2022-11-10T02:11:31.534Z,76372.25
2022-11-10T02:14:01.308Z,76361.88
2022-11-10T02:16:29.632Z,76355.63
2022-11-10T02:18:57.960Z,76357.72
2022-11-10T02:21:27.197Z,76366.03
2022-11-10T02:23:55.582Z,76347.31
2022-11-10T02:26:26.802Z,76361.88
2022-11-10T02:28:54.719Z,76357.72
2022-11-10T02:31:22.749Z,76355.63
2022-11-10T02:33:50.665Z,76353.56
2022-11-10T02:36:18.503Z,76336.91
2022-11-10T02:38:47.785Z,76330.69
2022-11-10T02:41:15.634Z,76324.44
2022-11-10T02:43:43.569Z,76318.22
2022-11-10T02:46:11.521Z,76299.50
2022-11-10T02:48:39.313Z,76318.22
2022-11-10T02:51:07.278Z,76318.22
2022-11-10T02:53:35.240Z,76318.22
2022-11-10T02:56:04.741Z,76328.59
2022-11-10T02:58:32.900Z,76336.91
2022-11-10T03:01:00.627Z,76366.03
2022-11-10T03:03:28.464Z,76380.56
2022-11-10T03:05:56.528Z,76415.91
2022-11-10T03:08:24.244Z,76424.25
2022-11-10T03:10:55.059Z,76453.34
2022-11-10T03:13:27.378Z,76457.50
2022-11-10T03:16:00.060Z,76474.13
2022-11-10T03:18:28.188Z,76490.78
2022-11-10T03:20:55.880Z,76507.41
2022-11-10T03:23:24.501Z,76540.66
2022-11-10T03:25:52.963Z,76578.09
2022-11-10T03:28:20.848Z,76573.94
2022-11-10T03:30:50.512Z,76565.63
2022-11-10T03:33:18.365Z,76580.19
2022-11-10T03:35:46.066Z,76619.69
2022-11-10T03:38:14.155Z,76617.59
2022-11-10T03:41:04.222Z,76615.53
2022-11-10T03:43:30.165Z,76632.16
2022-11-10T03:45:59.557Z,76636.31
2022-11-10T03:48:27.484Z,76628.00
2022-11-10T03:50:55.316Z,76582.25
2022-11-10T03:53:23.852Z,76559.38
2022-11-10T03:55:51.964Z,76528.19
2022-11-10T03:58:19.803Z,76515.72
2022-11-10T04:00:47.946Z,76511.56
2022-11-10T04:03:17.044Z,76503.25
2022-11-10T04:06:02.464Z,76488.69
2022-11-10T04:08:47.905Z,76474.13
2022-11-10T04:11:36.079Z,76507.41
2022-11-10T04:14:22.118Z,76521.97
2022-11-10T04:16:50.243Z,76513.63
2022-11-10T04:19:19.739Z,76528.19
2022-11-10T04:21:47.482Z,76532.34
2022-11-10T04:24:15.829Z,76546.91
2022-11-10T04:26:43.857Z,76553.16
2022-11-10T04:29:12.995Z,76549.00
2022-11-10T04:31:43.386Z,76538.59
2022-11-10T04:34:13.002Z,76536.50
2022-11-10T04:36:44.988Z,76536.50
2022-11-10T04:39:13.146Z,76540.66
2022-11-10T04:41:41.118Z,76544.84
2022-11-10T04:44:08.897Z,76557.31
2022-11-10T04:46:38.426Z,76553.16
2022-11-10T04:49:07.411Z,76549.00
2022-11-10T04:51:36.588Z,76532.34
2022-11-10T04:54:08.237Z,76532.34
2022-11-10T04:56:36.104Z,76536.50
2022-11-10T04:59:04.252Z,76569.78
2022-11-10T05:01:32.574Z,76557.31
2022-11-10T05:04:01.095Z,76540.66
2022-11-10T05:06:28.931Z,76501.16
2022-11-10T05:08:57.033Z,76469.97
2022-11-10T05:11:26.368Z,76459.59
2022-11-10T05:13:54.040Z,76467.91
2022-11-10T05:16:21.956Z,76474.13
2022-11-10T05:18:54.089Z,76457.50
2022-11-10T05:21:21.838Z,76455.44
2022-11-10T05:23:50.052Z,76463.75
2022-11-10T05:26:19.562Z,76465.81
2022-11-10T05:28:48.859Z,76447.09
2022-11-10T05:31:16.856Z,76449.19
2022-11-10T05:33:44.596Z,76445.03
2022-11-10T05:36:12.689Z,76445.03
2022-11-10T05:38:43.736Z,76442.94
2022-11-10T05:41:12.565Z,76440.88
2022-11-10T05:43:40.319Z,76449.19
2022-11-10T05:46:09.736Z,76453.34
2022-11-10T05:48:37.852Z,76459.59
2022-11-10T05:51:05.915Z,76461.66
2022-11-10T05:53:34.044Z,76465.81
2022-11-10T05:56:01.904Z,76469.97
2022-11-10T05:58:29.706Z,76461.66
2022-11-10T06:00:58.190Z,76461.66
2022-11-10T06:03:28.012Z,76453.34
2022-11-10T06:05:55.888Z,76465.81
2022-11-10T06:08:23.955Z,76457.50
2022-11-10T06:10:51.828Z,76461.66
2022-11-10T06:13:19.691Z,76457.50
2022-11-10T06:15:50.560Z,76457.50
2022-11-10T06:18:18.832Z,76449.19
2022-11-10T06:20:48.353Z,76457.50
2022-11-10T06:23:17.065Z,76457.50
2022-11-10T06:25:45.531Z,76465.81
2022-11-10T06:28:14.665Z,76459.59
2022-11-10T06:30:42.757Z,76461.66
2022-11-10T06:33:10.764Z,76467.91
2022-11-10T06:35:38.748Z,76465.81
2022-11-10T06:38:11.515Z,76461.66
2022-11-10T06:40:39.328Z,76465.81
2022-11-10T06:43:07.589Z,76457.50
2022-11-10T06:45:35.345Z,76453.34
2022-11-10T06:48:04.779Z,76453.34
2022-11-10T06:50:32.784Z,76445.03
2022-11-10T06:53:01.596Z,76453.34
2022-11-10T06:55:31.200Z,76461.66
2022-11-10T06:57:59.643Z,76449.19
2022-11-10T07:00:30.360Z,76465.81
2022-11-10T07:03:02.961Z,76474.13
2022-11-10T07:05:31.253Z,76486.63
2022-11-10T07:08:03.698Z,76499.09
2022-11-10T07:10:32.623Z,76494.94
2022-11-10T07:13:02.232Z,76507.41
2022-11-10T07:15:30.301Z,76503.25
2022-11-10T07:17:58.130Z,76492.84
2022-11-10T07:20:28.279Z,76488.69
2022-11-10T07:23:00.181Z,76494.94
2022-11-10T07:25:29.611Z,76486.63
2022-11-10T07:27:59.995Z,76465.81
2022-11-10T07:30:28.423Z,76453.34
2022-11-10T07:33:00.955Z,76451.28
2022-11-10T07:35:29.584Z,76447.09
2022-11-10T07:37:57.841Z,76445.03
2022-11-10T07:40:25.943Z,76436.72
2022-11-10T07:42:53.997Z,76434.63
2022-11-10T07:45:23.643Z,76424.25
2022-11-10T07:47:51.558Z,76424.25
2022-11-10T07:50:19.953Z,76422.16
2022-11-10T07:52:47.782Z,76411.75
2022-11-10T07:55:15.960Z,76407.59
2022-11-10T07:57:43.808Z,76382.66
2022-11-10T08:00:13.510Z,76376.41
2022-11-10T08:02:42.701Z,76370.19
2022-11-10T08:05:10.918Z,76376.41
2022-11-10T08:07:38.885Z,76386.81
2022-11-10T08:10:09.376Z,76395.13
2022-11-10T08:12:37.548Z,76388.91
2022-11-10T08:15:06.259Z,76393.06
2022-11-10T08:17:34.100Z,76388.91
2022-11-10T08:20:04.621Z,76395.13
2022-11-10T08:22:32.525Z,76386.81
2022-11-10T08:25:00.483Z,76382.66
2022-11-10T08:27:28.179Z,76403.44
2022-11-10T08:29:56.382Z,76413.84
2022-11-10T08:32:24.111Z,76411.75
2022-11-10T08:34:52.299Z,76424.25
2022-11-10T08:37:21.655Z,76411.75
2022-11-10T08:39:49.757Z,76403.44
2022-11-10T08:42:17.440Z,76415.91
2022-11-10T08:44:45.764Z,76420.09
2022-11-10T08:47:13.506Z,76411.75
2022-11-10T08:49:41.699Z,76399.28
2022-11-10T08:52:11.091Z,76395.13
2022-11-10T08:54:40.536Z,76386.81
2022-11-10T08:57:08.253Z,76374.34
2022-11-10T08:59:36.365Z,76366.03
2022-11-10T09:02:04.184Z,76370.19
2022-11-10T09:04:32.312Z,76366.03
2022-11-10T09:07:00.333Z,76361.88
2022-11-10T09:09:28.360Z,76361.88
2022-11-10T09:11:57.476Z,76361.88
2022-11-10T09:14:25.629Z,76353.56
2022-11-10T09:16:53.455Z,76349.41
2022-11-10T09:19:21.419Z,76345.22
2022-11-10T09:21:49.200Z,76353.56
2022-11-10T09:24:17.223Z,76336.91
2022-11-10T09:26:47.660Z,76324.44
2022-11-10T09:29:17.199Z,76334.84
2022-11-10T09:31:45.486Z,76311.97
2022-11-10T09:34:13.714Z,76314.06
2022-11-10T09:36:41.576Z,76311.97
2022-11-10T09:39:09.715Z,76299.50
2022-11-10T09:41:41.160Z,76305.72
2022-11-10T09:44:15.657Z,76320.28
2022-11-10T09:46:48.975Z,76339.00
2022-11-10T09:49:29.082Z,76316.13
2022-11-10T09:52:00.072Z,76314.06
2022-11-10T09:54:36.851Z,76320.28
2022-11-10T09:57:07.165Z,76299.50
2022-11-10T09:59:35.816Z,76287.03
2022-11-10T10:02:13.730Z,76291.19
2022-11-10T10:05:04.724Z,76307.81
2022-11-10T10:07:43.610Z,76303.66
2022-11-10T10:10:17.697Z,76295.34
2022-11-10T10:12:58.077Z,76307.81
2022-11-10T10:15:35.403Z,76299.50
2022-11-10T10:18:18.388Z,76301.56
2022-11-10T10:21:06.925Z,76307.81
2022-11-10T10:26:30.008Z,76291.19
2022-11-10T10:29:03.043Z,76291.19
2022-11-10T10:31:35.568Z,76284.94
2022-11-10T10:34:05.249Z,76291.19
2022-11-10T10:36:33.469Z,76297.41
2022-11-10T10:39:03.329Z,76266.22
2022-11-10T10:41:32.740Z,76257.91
2022-11-10T10:44:02.819Z,76276.63
2022-11-10T10:46:35.778Z,76270.38
2022-11-10T10:49:28.020Z,76266.22
2022-11-10T10:52:05.873Z,76251.69
2022-11-10T10:54:35.947Z,76253.75
2022-11-10T10:57:06.713Z,76262.06
2022-11-10T10:59:35.404Z,76257.91
2022-11-10T11:02:03.751Z,76274.53
2022-11-10T11:04:35.422Z,76287.03
2022-11-10T11:07:05.987Z,76287.03
2022-11-10T11:09:41.981Z,76291.19
2022-11-10T11:12:12.845Z,76295.34
2022-11-10T11:14:45.767Z,76287.03
2022-11-10T11:17:19.174Z,76295.34
2022-11-10T11:19:58.519Z,76295.34
2022-11-10T11:22:43.709Z,76301.56
2022-11-10T11:25:21.336Z,76314.06
2022-11-10T11:27:59.882Z,76334.84
2022-11-10T11:30:40.925Z,76326.53
2022-11-10T11:33:30.022Z,76341.06
2022-11-10T11:36:04.053Z,76357.72
2022-11-10T11:38:33.787Z,76382.66
2022-11-10T11:41:14.984Z,76390.97
2022-11-10T11:44:13.753Z,76390.97
2022-11-10T11:46:49.377Z,76374.34
2022-11-10T11:49:36.643Z,76370.19
2022-11-10T11:52:13.696Z,76374.34
2022-11-10T11:54:53.811Z,76382.66
2022-11-10T11:57:37.211Z,76386.81
2022-11-10T12:00:12.276Z,76386.81
2022-11-10T12:02:56.805Z,76395.13
2022-11-10T12:05:34.243Z,76370.19
2022-11-10T12:08:12.430Z,76366.03
2022-11-10T12:10:50.158Z,76357.72
2022-11-10T12:13:32.326Z,76361.88
2022-11-10T12:16:06.246Z,76361.88
2022-11-10T12:18:37.747Z,76361.88
2022-11-10T12:21:18.546Z,76361.88
2022-11-10T12:24:08.807Z,76361.88
2022-11-10T12:26:44.605Z,76370.19
2022-11-10T12:29:22.776Z,76378.50
2022-11-10T12:31:56.291Z,76386.81
2022-11-10T12:34:33.533Z,76359.78
2022-11-10T12:37:06.749Z,76345.22
2022-11-10T12:39:47.673Z,76357.72
2022-11-10T12:42:20.505Z,76370.19
2022-11-10T12:45:18.391Z,76374.34
2022-11-10T12:47:48.280Z,76378.50
2022-11-10T12:50:35.599Z,76386.81
2022-11-10T12:53:12.616Z,76384.72
2022-11-10T12:55:46.421Z,76378.50
2022-11-10T12:58:16.005Z,76374.34
2022-11-10T13:00:54.783Z,76370.19
2022-11-10T13:03:29.206Z,76353.56
2022-11-10T13:06:00.107Z,76343.16
2022-11-10T13:08:32.873Z,76341.06
2022-11-10T13:11:06.324Z,76357.72
2022-11-10T13:13:46.491Z,76357.72
2022-11-10T13:16:51.153Z,76366.03
2022-11-10T13:19:51.552Z,76361.88
2022-11-10T13:22:36.916Z,76357.72
2022-11-10T13:25:42.095Z,76366.03
2022-11-10T13:28:12.640Z,76368.09
2022-11-10T13:30:43.625Z,76353.56
2022-11-10T13:33:31.978Z,76380.56
2022-11-10T13:35:59.896Z,76378.50
2022-11-10T13:38:36.688Z,76386.81
2022-11-10T13:41:23.314Z,76378.50
2022-11-10T13:43:54.411Z,76378.50
2022-11-10T13:46:32.145Z,76366.03
2022-11-10T13:49:15.919Z,76374.34
2022-11-10T13:51:51.605Z,76386.81
2022-11-10T13:54:45.141Z,76382.66
2022-11-10T13:57:27.052Z,76382.66
2022-11-10T13:59:59.288Z,76399.28
2022-11-10T14:02:53.898Z,76382.66
2022-11-10T14:06:04.259Z,76378.50
2022-11-10T14:08:43.219Z,76382.66
2022-11-10T14:11:19.628Z,76386.81
2022-11-10T14:13:53.839Z,76382.66
2022-11-10T14:16:26.489Z,76386.81
2022-11-10T14:18:59.939Z,76399.28
2022-11-10T14:21:33.337Z,76403.44
2022-11-10T14:24:11.181Z,76413.84
2022-11-10T14:26:44.165Z,76436.72
2022-11-10T14:29:38.272Z,76455.44
2022-11-10T14:32:15.870Z,76445.03
2022-11-10T14:34:47.782Z,76453.34
2022-11-10T14:37:24.139Z,76445.03
2022-11-10T14:39:54.939Z,76463.75
2022-11-10T14:42:25.278Z,76461.66
2022-11-10T14:45:06.871Z,76474.13
2022-11-10T14:47:37.624Z,76459.59
2022-11-10T14:50:08.133Z,76469.97
2022-11-10T14:52:40.839Z,76474.13
2022-11-10T14:55:14.424Z,76472.06
2022-11-10T14:57:42.669Z,76484.53
2022-11-10T15:00:15.821Z,76490.78
2022-11-10T15:02:45.255Z,76499.09
2022-11-10T15:05:15.653Z,76499.09
2022-11-10T15:07:46.017Z,76494.94
2022-11-10T15:10:19.928Z,76499.09
2022-11-10T15:13:00.191Z,76505.31
2022-11-10T15:15:28.635Z,76519.88
2022-11-10T15:17:58.336Z,76515.72
2022-11-10T15:20:31.632Z,76511.56
2022-11-10T15:23:01.120Z,76536.50
2022-11-10T15:25:35.899Z,76528.19
2022-11-10T15:28:20.337Z,76530.28
2022-11-10T15:30:56.417Z,76538.59
2022-11-10T15:33:32.789Z,76546.91
2022-11-10T15:36:15.800Z,76569.78
2022-11-10T15:38:44.288Z,76565.63
2022-11-10T15:41:15.025Z,76563.53
2022-11-10T15:43:43.076Z,76544.84
2022-11-10T15:46:18.182Z,76549.00
2022-11-10T15:48:50.488Z,76555.22
2022-11-10T15:51:25.830Z,76549.00
2022-11-10T15:53:54.644Z,76551.06
2022-11-10T15:56:24.759Z,76551.06
2022-11-10T15:59:00.702Z,76549.00
2022-11-10T16:01:31.508Z,76557.31
2022-11-10T16:04:00.918Z,76565.63
2022-11-10T16:06:30.529Z,76561.47
2022-11-10T16:08:58.724Z,76573.94
2022-11-10T16:11:27.212Z,76567.69
2022-11-10T16:13:56.223Z,76580.19
2022-11-10T16:16:24.994Z,76561.47
2022-11-10T16:18:53.134Z,76569.78
2022-11-10T16:21:24.547Z,76573.94
2022-11-10T16:23:53.557Z,76576.00
2022-11-10T16:26:24.849Z,76565.63
2022-11-10T16:28:52.715Z,76586.41
2022-11-10T16:31:22.484Z,76584.34
2022-11-10T16:33:50.777Z,76578.09
2022-11-10T16:36:25.788Z,76573.94
2022-11-10T16:38:54.596Z,76569.78
2022-11-10T16:41:22.615Z,76569.78
2022-11-10T16:43:50.595Z,76582.25
2022-11-10T16:46:22.279Z,76573.94
2022-11-10T16:48:51.844Z,76565.63
2022-11-10T16:51:29.728Z,76569.78
2022-11-10T16:53:59.387Z,76573.94
2022-11-10T16:56:27.956Z,76586.41
2022-11-10T16:58:55.725Z,76586.41
2022-11-10T17:01:27.321Z,76592.66
2022-11-10T17:03:59.575Z,76596.81
2022-11-10T17:06:30.645Z,76598.88
2022-11-10T17:09:07.967Z,76603.03
2022-11-10T17:11:35.656Z,76605.13
2022-11-10T17:14:03.867Z,76615.53
2022-11-10T17:16:34.893Z,76619.69
2022-11-10T17:19:04.795Z,76611.38
2022-11-10T17:21:36.546Z,76621.75
2022-11-10T17:24:05.928Z,76623.84
2022-11-10T17:26:35.206Z,76619.69
2022-11-10T17:29:03.181Z,76628.00
2022-11-10T17:31:31.006Z,76644.63
2022-11-10T17:33:58.777Z,76642.56
2022-11-10T17:36:26.744Z,76648.78
2022-11-10T17:38:55.810Z,76642.56
2022-11-10T17:41:24.048Z,76648.78
2022-11-10T17:43:51.916Z,76655.03
2022-11-10T17:46:19.875Z,76648.78
2022-11-10T17:48:48.027Z,76644.63
2022-11-10T17:51:20.057Z,76636.31
2022-11-10T17:53:48.565Z,76642.56
2022-11-10T17:56:18.572Z,76644.63
2022-11-10T17:58:46.257Z,76640.47
2022-11-10T18:01:17.933Z,76638.41
2022-11-10T18:03:46.104Z,76642.56
2022-11-10T18:06:15.135Z,76648.78
2022-11-10T18:08:43.431Z,76655.03
2022-11-10T18:11:12.188Z,76650.88
2022-11-10T18:13:42.796Z,76655.03
2022-11-10T18:16:13.155Z,76661.25
2022-11-10T18:18:41.756Z,76671.66
2022-11-10T18:21:10.842Z,76679.97
2022-11-10T18:23:39.420Z,76686.22
2022-11-10T18:26:08.728Z,76696.63
2022-11-10T18:28:36.811Z,76702.84
2022-11-10T18:31:10.687Z,76707.00
2022-11-10T18:33:38.677Z,76717.41
2022-11-10T18:36:07.287Z,76723.66
2022-11-10T18:38:35.930Z,76717.41
2022-11-10T18:41:26.509Z,76740.28
2022-11-10T18:43:55.025Z,76736.13
2022-11-10T18:46:24.104Z,76742.34
2022-11-10T18:48:52.224Z,76746.50
2022-11-10T18:51:20.296Z,76756.91
2022-11-10T18:53:48.232Z,76756.91
2022-11-10T18:56:15.938Z,76771.47
2022-11-10T18:58:44.363Z,76765.22
2022-11-10T19:01:12.549Z,76769.38
2022-11-10T19:03:42.667Z,76769.38
2022-11-10T19:06:11.288Z,76783.94
2022-11-10T19:08:39.310Z,76783.94
2022-11-10T19:11:08.140Z,76790.19
2022-11-10T19:13:36.913Z,76794.34
2022-11-10T19:16:06.272Z,76817.22
2022-11-10T19:18:34.300Z,76819.28
2022-11-10T19:21:06.752Z,76823.44
2022-11-10T19:23:34.761Z,76829.69
2022-11-10T19:26:03.640Z,76831.75
2022-11-10T19:28:32.011Z,76831.75
2022-11-10T19:31:02.857Z,76831.75
2022-11-10T19:33:32.172Z,76833.84
2022-11-10T19:36:03.499Z,76835.94
2022-11-10T19:38:33.896Z,76844.25
2022-11-10T19:41:05.952Z,76835.94
2022-11-10T19:43:33.984Z,76852.56
2022-11-10T19:46:05.441Z,76833.84
2022-11-10T19:48:33.639Z,76846.31
2022-11-10T19:51:02.828Z,76840.09
2022-11-10T19:53:31.437Z,76848.41
2022-11-10T19:56:05.930Z,76860.88
2022-11-10T19:58:37.111Z,76858.78
2022-11-10T20:01:05.984Z,76850.47
2022-11-10T20:03:34.026Z,76852.56
2022-11-10T20:06:03.784Z,76865.03
2022-11-10T20:08:32.726Z,76865.03
2022-11-10T20:11:01.866Z,76867.13
2022-11-10T20:13:31.268Z,76873.34
2022-11-10T20:15:59.531Z,76885.84
2022-11-10T20:18:27.194Z,76879.59
2022-11-10T20:20:55.146Z,76887.91
2022-11-10T20:23:23.473Z,76902.47
2022-11-10T20:26:02.257Z,76902.47
2022-11-10T20:28:31.949Z,76908.69
2022-11-10T20:31:00.714Z,76919.09
2022-11-10T20:33:28.744Z,76921.19
2022-11-10T20:35:56.893Z,76921.19
2022-11-10T20:38:24.638Z,76935.72
2022-11-10T20:41:02.896Z,76948.22
2022-11-10T20:43:34.153Z,76956.53
2022-11-10T20:46:02.386Z,76952.38
2022-11-10T20:48:31.288Z,76956.53
2022-11-10T20:51:00.007Z,76964.84
2022-11-10T20:53:29.603Z,76977.31
2022-11-10T20:55:59.471Z,76989.81
2022-11-10T20:58:27.643Z,76977.31
2022-11-10T21:01:02.113Z,76969.00
2022-11-10T21:03:32.183Z,76964.84
2022-11-10T21:06:01.361Z,76973.16
2022-11-10T21:08:29.819Z,76973.16
2022-11-10T21:10:59.773Z,76985.63
2022-11-10T21:13:27.889Z,76981.47
2022-11-10T21:15:59.818Z,76981.47
2022-11-10T21:18:31.676Z,76973.16
2022-11-10T21:20:59.829Z,76964.84
2022-11-10T21:23:27.680Z,76969.00
2022-11-10T21:25:56.793Z,76973.16
2022-11-10T21:28:25.127Z,76975.25
2022-11-10T21:30:53.472Z,76964.84
2022-11-10T21:33:23.085Z,76966.94
2022-11-10T21:35:51.195Z,76960.69
2022-11-10T21:38:18.934Z,76952.38
2022-11-10T21:40:47.343Z,76956.53
2022-11-10T21:43:15.062Z,76956.53
2022-11-10T21:45:43.083Z,76960.69
2022-11-10T21:48:11.036Z,76960.69
2022-11-10T21:50:40.464Z,76948.22
2022-11-10T21:53:09.544Z,76944.06
2022-11-10T21:55:37.662Z,76944.06
2022-11-10T21:58:05.403Z,76933.66
2022-11-10T22:00:33.628Z,76948.22
2022-11-10T22:03:05.632Z,76935.72
2022-11-10T22:05:34.561Z,76931.56
2022-11-10T22:08:04.751Z,76941.97
2022-11-10T22:10:50.193Z,76939.88
2022-11-10T22:13:37.217Z,76933.66
2022-11-10T22:16:37.914Z,76950.28
2022-11-10T22:19:08.143Z,76954.44
2022-11-10T22:21:35.984Z,76950.28
2022-11-10T22:24:28.600Z,76952.38
2022-11-10T22:26:58.457Z,76952.38
2022-11-10T22:29:31.450Z,76952.38
2022-11-10T22:32:00.379Z,76960.69
2022-11-10T22:34:28.568Z,76966.94
2022-11-10T22:36:56.273Z,76969.00
2022-11-10T22:39:46.264Z,76956.53
2022-11-10T22:42:32.109Z,76969.00
2022-11-10T22:45:00.396Z,76977.31
2022-11-10T22:47:48.361Z,76985.63
2022-11-10T22:50:16.330Z,76977.31
2022-11-10T22:52:44.362Z,76979.41
2022-11-10T22:55:13.644Z,76977.31
2022-11-10T22:57:41.681Z,76979.41
2022-11-10T23:00:10.684Z,76981.47
2022-11-10T23:02:38.657Z,76981.47
2022-11-10T23:05:07.361Z,76977.31
2022-11-10T23:07:35.041Z,76971.09
2022-11-10T23:10:03.070Z,76987.72
2022-11-10T23:12:32.337Z,76983.56
2022-11-10T23:15:00.291Z,76977.31
2022-11-10T23:17:28.264Z,76981.47
2022-11-10T23:19:56.470Z,76989.81
2022-11-10T23:22:24.179Z,76985.63
2022-11-10T23:24:57.041Z,76993.97
2022-11-10T23:27:25.653Z,76998.13
2022-11-10T23:29:54.931Z,76996.03
2022-11-10T23:32:22.636Z,77006.44
2022-11-10T23:34:50.788Z,77010.59
2022-11-10T23:37:18.652Z,77008.50
2022-11-10T23:39:46.592Z,77012.66
2022-11-10T23:42:14.627Z,77002.28
2022-11-10T23:44:42.580Z,77023.06
2022-11-10T23:47:11.621Z,77023.06
2022-11-10T23:49:39.600Z,77010.59
2022-11-10T23:52:07.544Z,77025.16
2022-11-10T23:54:35.227Z,77031.38
2022-11-10T23:57:03.447Z,77031.38
2022-11-10T23:59:31.156Z,77033.47
